sensor_id;sensor_type;location;lat;lon;timestamp;temperature;humidity
41324;DHT22;27073;51.128;4.220;2023-03-17T00:01:01;12.90;99.90
41324;DHT22;27073;51.128;4.220;2023-03-17T00:03:28;12.90;99.90
41324;DHT22;27073;51.128;4.220;2023-03-17T00:05:57;12.80;99.90
41324;DHT22;27073;51.128;4.220;2023-03-17T00:08:25;12.60;99.90
41324;DHT22;27073;51.128;4.220;2023-03-17T00:10:52;12.50;99.90
41324;DHT22;27073;51.128;4.220;2023-03-17T00:13:18;12.40;1.00
41324;DHT22;27073;51.128;4.220;2023-03-17T00:15:45;12.40;41.30
41324;DHT22;27073;51.128;4.220;2023-03-17T00:18:15;12.20;87.30
41324;DHT22;27073;51.128;4.220;2023-03-17T00:20:42;12.10;99.90
41324;DHT22;27073;51.128;4.220;2023-03-17T00:23:14;12.10;81.10
41324;DHT22;27073;51.128;4.220;2023-03-17T00:25:40;12.20;61.50
41324;DHT22;27073;51.128;4.220;2023-03-17T00:30:58;12.10;99.90
41324;DHT22;27073;51.128;4.220;2023-03-17T00:33:27;12.00;99.90
41324;DHT22;27073;51.128;4.220;2023-03-17T00:35:54;12.00;99.90
41324;DHT22;27073;51.128;4.220;2023-03-17T00:38:21;11.90;99.90
41324;DHT22;27073;51.128;4.220;2023-03-17T00:40:50;11.90;99.90
41324;DHT22;27073;51.128;4.220;2023-03-17T00:43:16;11.90;99.90
41324;DHT22;27073;51.128;4.220;2023-03-17T00:45:42;11.90;99.90
41324;DHT22;27073;51.128;4.220;2023-03-17T00:48:13;11.90;99.90
41324;DHT22;27073;51.128;4.220;2023-03-17T00:50:42;11.90;99.90
41324;DHT22;27073;51.128;4.220;2023-03-17T00:53:13;11.80;99.90
41324;DHT22;27073;51.128;4.220;2023-03-17T00:55:40;11.70;99.90
41324;DHT22;27073;51.128;4.220;2023-03-17T00:58:14;11.70;99.90
41324;DHT22;27073;51.128;4.220;2023-03-17T01:00:42;11.80;99.90
41324;DHT22;27073;51.128;4.220;2023-03-17T01:03:10;11.90;99.90
41324;DHT22;27073;51.128;4.220;2023-03-17T01:05:37;12.00;99.90
41324;DHT22;27073;51.128;4.220;2023-03-17T01:08:04;12.00;99.90
41324;DHT22;27073;51.128;4.220;2023-03-17T01:10:30;11.90;99.90
41324;DHT22;27073;51.128;4.220;2023-03-17T01:12:58;11.80;99.90
41324;DHT22;27073;51.128;4.220;2023-03-17T01:15:26;11.90;99.90
41324;DHT22;27073;51.128;4.220;2023-03-17T01:17:53;12.20;99.90
41324;DHT22;27073;51.128;4.220;2023-03-17T01:20:26;12.00;99.90
41324;DHT22;27073;51.128;4.220;2023-03-17T01:22:52;11.90;99.90
41324;DHT22;27073;51.128;4.220;2023-03-17T01:25:19;12.10;99.90
41324;DHT22;27073;51.128;4.220;2023-03-17T01:27:45;11.90;99.90
41324;DHT22;27073;51.128;4.220;2023-03-17T01:30:31;11.90;99.90
41324;DHT22;27073;51.128;4.220;2023-03-17T01:32:57;11.90;99.90
41324;DHT22;27073;51.128;4.220;2023-03-17T01:35:26;12.00;99.90
41324;DHT22;27073;51.128;4.220;2023-03-17T01:37:54;11.90;99.90
41324;DHT22;27073;51.128;4.220;2023-03-17T01:40:29;11.80;99.90
41324;DHT22;27073;51.128;4.220;2023-03-17T01:43:16;12.00;99.90
41324;DHT22;27073;51.128;4.220;2023-03-17T01:48:44;12.20;99.90
41324;DHT22;27073;51.128;4.220;2023-03-17T01:51:16;12.40;99.90
41324;DHT22;27073;51.128;4.220;2023-03-17T01:53:44;12.40;27.00
41324;DHT22;27073;51.128;4.220;2023-03-17T01:56:11;12.10;99.90
41324;DHT22;27073;51.128;4.220;2023-03-17T01:58:38;12.10;99.90
41324;DHT22;27073;51.128;4.220;2023-03-17T02:01:05;12.00;99.90
41324;DHT22;27073;51.128;4.220;2023-03-17T02:03:32;12.00;99.90
41324;DHT22;27073;51.128;4.220;2023-03-17T02:05:57;12.00;99.90
41324;DHT22;27073;51.128;4.220;2023-03-17T02:08:25;12.10;99.90
41324;DHT22;27073;51.128;4.220;2023-03-17T02:10:52;12.00;99.90
41324;DHT22;27073;51.128;4.220;2023-03-17T02:13:21;11.80;99.90
41324;DHT22;27073;51.128;4.220;2023-03-17T02:15:52;11.70;99.90
41324;DHT22;27073;51.128;4.220;2023-03-17T02:18:20;11.70;99.90
41324;DHT22;27073;51.128;4.220;2023-03-17T02:23:18;11.70;99.90
41324;DHT22;27073;51.128;4.220;2023-03-17T02:25:47;11.80;99.90
41324;DHT22;27073;51.128;4.220;2023-03-17T02:28:22;12.10;99.90
41324;DHT22;27073;51.128;4.220;2023-03-17T02:30:50;12.20;99.90
41324;DHT22;27073;51.128;4.220;2023-03-17T02:33:17;11.90;99.90
41324;DHT22;27073;51.128;4.220;2023-03-17T02:35:44;11.80;99.90
41324;DHT22;27073;51.128;4.220;2023-03-17T02:38:10;12.00;99.90
41324;DHT22;27073;51.128;4.220;2023-03-17T02:40:36;11.90;99.90
41324;DHT22;27073;51.128;4.220;2023-03-17T02:43:02;11.90;99.90
41324;DHT22;27073;51.128;4.220;2023-03-17T02:45:28;11.90;99.90
41324;DHT22;27073;51.128;4.220;2023-03-17T02:47:54;11.70;99.90
41324;DHT22;27073;51.128;4.220;2023-03-17T02:50:24;11.70;99.90
41324;DHT22;27073;51.128;4.220;2023-03-17T02:52:52;11.70;99.90
41324;DHT22;27073;51.128;4.220;2023-03-17T02:55:18;11.60;99.90
41324;DHT22;27073;51.128;4.220;2023-03-17T02:57:44;11.70;99.90
41324;DHT22;27073;51.128;4.220;2023-03-17T03:00:10;11.70;99.90
41324;DHT22;27073;51.128;4.220;2023-03-17T03:02:37;11.70;99.90
41324;DHT22;27073;51.128;4.220;2023-03-17T03:05:04;11.70;99.90
41324;DHT22;27073;51.128;4.220;2023-03-17T03:07:30;11.90;99.90
41324;DHT22;27073;51.128;4.220;2023-03-17T03:09:57;11.70;99.90
41324;DHT22;27073;51.128;4.220;2023-03-17T03:12:23;11.60;99.90
41324;DHT22;27073;51.128;4.220;2023-03-17T03:14:49;11.70;99.90
41324;DHT22;27073;51.128;4.220;2023-03-17T03:17:15;11.90;99.90
41324;DHT22;27073;51.128;4.220;2023-03-17T03:19:41;12.10;99.90
41324;DHT22;27073;51.128;4.220;2023-03-17T03:22:07;12.20;99.90
41324;DHT22;27073;51.128;4.220;2023-03-17T03:24:34;12.40;99.90
41324;DHT22;27073;51.128;4.220;2023-03-17T03:27:00;12.20;99.90
41324;DHT22;27073;51.128;4.220;2023-03-17T03:29:26;12.30;99.90
41324;DHT22;27073;51.128;4.220;2023-03-17T03:31:51;12.10;99.90
41324;DHT22;27073;51.128;4.220;2023-03-17T03:34:17;11.80;99.90
41324;DHT22;27073;51.128;4.220;2023-03-17T03:36:43;11.50;99.90
41324;DHT22;27073;51.128;4.220;2023-03-17T03:39:09;11.40;99.90
41324;DHT22;27073;51.128;4.220;2023-03-17T03:41:35;11.30;99.90
41324;DHT22;27073;51.128;4.220;2023-03-17T03:44:00;11.30;99.90
41324;DHT22;27073;51.128;4.220;2023-03-17T03:46:26;11.30;99.90
41324;DHT22;27073;51.128;4.220;2023-03-17T03:48:53;11.40;99.90
41324;DHT22;27073;51.128;4.220;2023-03-17T03:51:19;11.30;99.90
41324;DHT22;27073;51.128;4.220;2023-03-17T03:53:45;11.30;99.90
41324;DHT22;27073;51.128;4.220;2023-03-17T03:56:12;11.30;99.90
41324;DHT22;27073;51.128;4.220;2023-03-17T03:58:39;11.60;99.90
41324;DHT22;27073;51.128;4.220;2023-03-17T04:01:07;11.50;99.90
41324;DHT22;27073;51.128;4.220;2023-03-17T04:03:35;11.50;99.90
41324;DHT22;27073;51.128;4.220;2023-03-17T04:06:01;11.40;99.90
41324;DHT22;27073;51.128;4.220;2023-03-17T04:08:29;11.40;99.90
41324;DHT22;27073;51.128;4.220;2023-03-17T04:10:56;11.40;99.90
41324;DHT22;27073;51.128;4.220;2023-03-17T04:13:22;11.30;99.90
41324;DHT22;27073;51.128;4.220;2023-03-17T04:15:48;11.30;99.90
41324;DHT22;27073;51.128;4.220;2023-03-17T04:18:13;11.30;99.90
41324;DHT22;27073;51.128;4.220;2023-03-17T04:20:39;11.30;99.90
41324;DHT22;27073;51.128;4.220;2023-03-17T04:23:05;11.30;99.90
41324;DHT22;27073;51.128;4.220;2023-03-17T04:25:31;11.30;99.90
41324;DHT22;27073;51.128;4.220;2023-03-17T04:27:57;11.30;99.90
41324;DHT22;27073;51.128;4.220;2023-03-17T04:30:22;11.30;99.90
41324;DHT22;27073;51.128;4.220;2023-03-17T04:32:48;11.30;1.00
41324;DHT22;27073;51.128;4.220;2023-03-17T04:35:16;11.30;99.90
41324;DHT22;27073;51.128;4.220;2023-03-17T04:37:43;11.30;1.00
41324;DHT22;27073;51.128;4.220;2023-03-17T04:40:10;11.30;1.00
41324;DHT22;27073;51.128;4.220;2023-03-17T04:42:37;11.40;99.90
41324;DHT22;27073;51.128;4.220;2023-03-17T04:45:04;11.50;99.90
41324;DHT22;27073;51.128;4.220;2023-03-17T04:47:31;11.80;99.90
41324;DHT22;27073;51.128;4.220;2023-03-17T04:49:57;11.90;99.90
41324;DHT22;27073;51.128;4.220;2023-03-17T04:52:23;11.90;99.90
41324;DHT22;27073;51.128;4.220;2023-03-17T04:54:49;11.80;99.90
41324;DHT22;27073;51.128;4.220;2023-03-17T04:57:15;12.00;99.90
41324;DHT22;27073;51.128;4.220;2023-03-17T04:59:40;11.90;99.90
41324;DHT22;27073;51.128;4.220;2023-03-17T05:02:06;11.70;99.90
41324;DHT22;27073;51.128;4.220;2023-03-17T05:04:32;11.60;99.90
41324;DHT22;27073;51.128;4.220;2023-03-17T05:06:58;11.50;99.90
41324;DHT22;27073;51.128;4.220;2023-03-17T05:09:25;11.30;1.00
41324;DHT22;27073;51.128;4.220;2023-03-17T05:11:51;11.20;1.00
41324;DHT22;27073;51.128;4.220;2023-03-17T05:14:17;11.10;1.00
41324;DHT22;27073;51.128;4.220;2023-03-17T05:16:46;11.10;1.00
41324;DHT22;27073;51.128;4.220;2023-03-17T05:19:12;11.00;1.00
41324;DHT22;27073;51.128;4.220;2023-03-17T05:21:37;11.20;1.00
41324;DHT22;27073;51.128;4.220;2023-03-17T05:24:03;11.20;1.00
41324;DHT22;27073;51.128;4.220;2023-03-17T05:26:29;11.30;1.00
41324;DHT22;27073;51.128;4.220;2023-03-17T05:28:55;11.50;1.00
41324;DHT22;27073;51.128;4.220;2023-03-17T05:31:21;11.70;1.00
41324;DHT22;27073;51.128;4.220;2023-03-17T05:33:47;11.50;1.00
41324;DHT22;27073;51.128;4.220;2023-03-17T05:36:14;11.20;1.00
41324;DHT22;27073;51.128;4.220;2023-03-17T05:38:40;11.10;1.00
41324;DHT22;27073;51.128;4.220;2023-03-17T05:41:06;11.10;1.00
41324;DHT22;27073;51.128;4.220;2023-03-17T05:43:32;11.00;1.00
41324;DHT22;27073;51.128;4.220;2023-03-17T05:45:58;10.90;1.00
41324;DHT22;27073;51.128;4.220;2023-03-17T05:48:24;10.90;1.00
41324;DHT22;27073;51.128;4.220;2023-03-17T05:50:51;10.80;1.00
41324;DHT22;27073;51.128;4.220;2023-03-17T05:53:16;10.90;1.00
41324;DHT22;27073;51.128;4.220;2023-03-17T05:55:43;10.80;1.00
41324;DHT22;27073;51.128;4.220;2023-03-17T05:58:09;10.80;1.00
41324;DHT22;27073;51.128;4.220;2023-03-17T06:00:35;10.80;1.00
41324;DHT22;27073;51.128;4.220;2023-03-17T06:03:03;10.90;1.00
41324;DHT22;27073;51.128;4.220;2023-03-17T06:05:29;11.00;1.00
41324;DHT22;27073;51.128;4.220;2023-03-17T06:07:55;11.00;1.00
41324;DHT22;27073;51.128;4.220;2023-03-17T06:10:22;10.80;1.00
41324;DHT22;27073;51.128;4.220;2023-03-17T06:12:48;10.70;1.00
41324;DHT22;27073;51.128;4.220;2023-03-17T06:15:14;10.60;1.00
41324;DHT22;27073;51.128;4.220;2023-03-17T06:17:41;10.60;1.00
41324;DHT22;27073;51.128;4.220;2023-03-17T06:20:08;10.60;1.00
41324;DHT22;27073;51.128;4.220;2023-03-17T06:22:34;10.80;1.00
41324;DHT22;27073;51.128;4.220;2023-03-17T06:25:01;10.90;1.00
41324;DHT22;27073;51.128;4.220;2023-03-17T06:27:27;11.00;1.00
41324;DHT22;27073;51.128;4.220;2023-03-17T06:29:53;11.20;1.00
41324;DHT22;27073;51.128;4.220;2023-03-17T06:32:19;11.30;1.00
41324;DHT22;27073;51.128;4.220;2023-03-17T06:34:45;11.30;1.00
41324;DHT22;27073;51.128;4.220;2023-03-17T06:37:11;11.30;1.00
41324;DHT22;27073;51.128;4.220;2023-03-17T06:39:37;11.30;1.00
41324;DHT22;27073;51.128;4.220;2023-03-17T06:42:03;11.50;1.00
41324;DHT22;27073;51.128;4.220;2023-03-17T06:44:29;11.70;1.00
41324;DHT22;27073;51.128;4.220;2023-03-17T06:46:56;11.60;1.00
41324;DHT22;27073;51.128;4.220;2023-03-17T06:49:22;11.60;1.00
41324;DHT22;27073;51.128;4.220;2023-03-17T06:51:47;11.60;1.00
41324;DHT22;27073;51.128;4.220;2023-03-17T06:54:13;11.70;1.00
41324;DHT22;27073;51.128;4.220;2023-03-17T06:56:39;11.70;1.00
41324;DHT22;27073;51.128;4.220;2023-03-17T06:59:05;11.80;1.00
41324;DHT22;27073;51.128;4.220;2023-03-17T07:01:31;11.60;1.00
41324;DHT22;27073;51.128;4.220;2023-03-17T07:03:56;11.60;1.00
41324;DHT22;27073;51.128;4.220;2023-03-17T07:06:22;11.30;1.00
41324;DHT22;27073;51.128;4.220;2023-03-17T07:08:48;11.20;1.00
41324;DHT22;27073;51.128;4.220;2023-03-17T07:11:15;11.30;1.00
41324;DHT22;27073;51.128;4.220;2023-03-17T07:13:41;11.40;1.00
41324;DHT22;27073;51.128;4.220;2023-03-17T07:16:08;11.40;1.00
41324;DHT22;27073;51.128;4.220;2023-03-17T07:18:34;11.20;1.00
41324;DHT22;27073;51.128;4.220;2023-03-17T07:21:00;11.20;1.00
41324;DHT22;27073;51.128;4.220;2023-03-17T07:23:27;11.30;1.00
41324;DHT22;27073;51.128;4.220;2023-03-17T07:25:54;11.40;1.00
41324;DHT22;27073;51.128;4.220;2023-03-17T07:28:20;11.80;1.00
41324;DHT22;27073;51.128;4.220;2023-03-17T07:30:49;11.80;1.00
41324;DHT22;27073;51.128;4.220;2023-03-17T07:33:16;12.00;1.00
41324;DHT22;27073;51.128;4.220;2023-03-17T07:35:42;11.90;1.00
41324;DHT22;27073;51.128;4.220;2023-03-17T07:38:12;12.00;1.00
41324;DHT22;27073;51.128;4.220;2023-03-17T07:40:38;12.10;1.00
41324;DHT22;27073;51.128;4.220;2023-03-17T07:43:04;12.20;1.00
41324;DHT22;27073;51.128;4.220;2023-03-17T07:45:30;12.40;1.00
41324;DHT22;27073;51.128;4.220;2023-03-17T07:47:56;12.40;1.00
41324;DHT22;27073;51.128;4.220;2023-03-17T07:50:22;12.40;1.00
41324;DHT22;27073;51.128;4.220;2023-03-17T07:52:47;12.00;1.00
41324;DHT22;27073;51.128;4.220;2023-03-17T07:55:13;11.90;1.00
41324;DHT22;27073;51.128;4.220;2023-03-17T07:57:40;11.70;1.00
41324;DHT22;27073;51.128;4.220;2023-03-17T08:00:07;11.80;1.00
41324;DHT22;27073;51.128;4.220;2023-03-17T08:02:38;11.90;1.00
41324;DHT22;27073;51.128;4.220;2023-03-17T08:05:04;12.00;1.00
41324;DHT22;27073;51.128;4.220;2023-03-17T08:07:33;12.20;1.00
41324;DHT22;27073;51.128;4.220;2023-03-17T08:09:59;12.30;1.00
41324;DHT22;27073;51.128;4.220;2023-03-17T08:12:24;12.50;1.00
41324;DHT22;27073;51.128;4.220;2023-03-17T08:14:51;12.30;1.00
41324;DHT22;27073;51.128;4.220;2023-03-17T08:17:17;12.20;1.00
41324;DHT22;27073;51.128;4.220;2023-03-17T08:19:43;12.20;1.00
41324;DHT22;27073;51.128;4.220;2023-03-17T08:22:09;12.30;1.00
41324;DHT22;27073;51.128;4.220;2023-03-17T08:24:35;12.20;1.00
41324;DHT22;27073;51.128;4.220;2023-03-17T08:27:02;12.20;1.00
41324;DHT22;27073;51.128;4.220;2023-03-17T08:29:29;12.20;1.00
41324;DHT22;27073;51.128;4.220;2023-03-17T08:31:55;12.30;1.00
41324;DHT22;27073;51.128;4.220;2023-03-17T08:34:22;12.30;1.00
41324;DHT22;27073;51.128;4.220;2023-03-17T08:36:49;12.40;1.00
41324;DHT22;27073;51.128;4.220;2023-03-17T08:39:15;12.60;1.00
41324;DHT22;27073;51.128;4.220;2023-03-17T08:41:42;12.60;1.00
41324;DHT22;27073;51.128;4.220;2023-03-17T08:44:08;12.70;1.00
41324;DHT22;27073;51.128;4.220;2023-03-17T08:46:35;12.80;1.00
41324;DHT22;27073;51.128;4.220;2023-03-17T08:49:01;12.90;1.00
41324;DHT22;27073;51.128;4.220;2023-03-17T08:51:32;12.80;1.00
41324;DHT22;27073;51.128;4.220;2023-03-17T08:53:59;12.90;1.00
41324;DHT22;27073;51.128;4.220;2023-03-17T08:56:25;12.90;1.00
41324;DHT22;27073;51.128;4.220;2023-03-17T08:58:51;12.90;1.00
41324;DHT22;27073;51.128;4.220;2023-03-17T09:01:18;12.80;1.00
41324;DHT22;27073;51.128;4.220;2023-03-17T09:03:46;12.90;1.00
41324;DHT22;27073;51.128;4.220;2023-03-17T09:06:12;13.10;1.00
41324;DHT22;27073;51.128;4.220;2023-03-17T09:08:42;13.20;1.00
41324;DHT22;27073;51.128;4.220;2023-03-17T09:11:18;13.20;1.00
41324;DHT22;27073;51.128;4.220;2023-03-17T09:13:45;13.10;1.00
41324;DHT22;27073;51.128;4.220;2023-03-17T09:16:15;13.10;1.00
41324;DHT22;27073;51.128;4.220;2023-03-17T09:18:43;13.10;1.00
41324;DHT22;27073;51.128;4.220;2023-03-17T09:21:13;13.20;1.00
41324;DHT22;27073;51.128;4.220;2023-03-17T09:23:39;13.30;1.00
41324;DHT22;27073;51.128;4.220;2023-03-17T09:26:06;13.50;1.00
41324;DHT22;27073;51.128;4.220;2023-03-17T09:28:32;13.70;99.90
41324;DHT22;27073;51.128;4.220;2023-03-17T09:30:59;13.70;99.90
41324;DHT22;27073;51.128;4.220;2023-03-17T09:33:26;13.70;1.00
41324;DHT22;27073;51.128;4.220;2023-03-17T09:35:53;13.80;1.00
41324;DHT22;27073;51.128;4.220;2023-03-17T09:38:19;14.00;99.90
41324;DHT22;27073;51.128;4.220;2023-03-17T09:40:57;13.80;99.90
41324;DHT22;27073;51.128;4.220;2023-03-17T09:43:33;13.80;1.00
41324;DHT22;27073;51.128;4.220;2023-03-17T09:46:16;14.00;99.90
41324;DHT22;27073;51.128;4.220;2023-03-17T09:49:00;14.10;99.90
41324;DHT22;27073;51.128;4.220;2023-03-17T09:51:28;14.20;99.90
41324;DHT22;27073;51.128;4.220;2023-03-17T09:54:31;14.20;99.90
41324;DHT22;27073;51.128;4.220;2023-03-17T09:57:14;14.30;99.90
41324;DHT22;27073;51.128;4.220;2023-03-17T09:59:48;14.10;99.90
41324;DHT22;27073;51.128;4.220;2023-03-17T10:02:24;14.20;99.90
41324;DHT22;27073;51.128;4.220;2023-03-17T10:04:52;14.40;99.90
41324;DHT22;27073;51.128;4.220;2023-03-17T10:07:44;14.70;99.90
41324;DHT22;27073;51.128;4.220;2023-03-17T10:16:12;14.80;99.90
41324;DHT22;27073;51.128;4.220;2023-03-17T10:19:09;14.80;99.90
41324;DHT22;27073;51.128;4.220;2023-03-17T10:21:48;14.70;99.90
41324;DHT22;27073;51.128;4.220;2023-03-17T10:24:14;14.60;99.90
41324;DHT22;27073;51.128;4.220;2023-03-17T10:26:45;14.70;99.90
41324;DHT22;27073;51.128;4.220;2023-03-17T10:29:22;14.60;99.90
41324;DHT22;27073;51.128;4.220;2023-03-17T10:31:52;14.70;99.90
41324;DHT22;27073;51.128;4.220;2023-03-17T10:34:31;14.60;99.90
41324;DHT22;27073;51.128;4.220;2023-03-17T10:37:02;14.80;1.00
41324;DHT22;27073;51.128;4.220;2023-03-17T10:39:30;15.00;99.90
41324;DHT22;27073;51.128;4.220;2023-03-17T10:42:09;15.10;99.90
41324;DHT22;27073;51.128;4.220;2023-03-17T10:47:39;15.30;99.90
41324;DHT22;27073;51.128;4.220;2023-03-17T10:52:44;15.60;99.90
41324;DHT22;27073;51.128;4.220;2023-03-17T10:55:14;15.70;99.90
41324;DHT22;27073;51.128;4.220;2023-03-17T10:57:50;15.50;99.90
41324;DHT22;27073;51.128;4.220;2023-03-17T11:00:18;15.50;99.90
41324;DHT22;27073;51.128;4.220;2023-03-17T11:02:54;15.50;99.90
41324;DHT22;27073;51.128;4.220;2023-03-17T11:05:26;15.40;99.90
41324;DHT22;27073;51.128;4.220;2023-03-17T11:08:09;15.40;99.90
41324;DHT22;27073;51.128;4.220;2023-03-17T11:10:39;15.50;99.90
41324;DHT22;27073;51.128;4.220;2023-03-17T11:13:06;15.50;99.90
41324;DHT22;27073;51.128;4.220;2023-03-17T11:15:38;15.50;99.90
41324;DHT22;27073;51.128;4.220;2023-03-17T11:18:14;15.70;99.90
41324;DHT22;27073;51.128;4.220;2023-03-17T11:20:58;15.80;99.90
41324;DHT22;27073;51.128;4.220;2023-03-17T11:43:54;16.10;99.90
41324;DHT22;27073;51.128;4.220;2023-03-17T11:46:36;16.00;99.90
41324;DHT22;27073;51.128;4.220;2023-03-17T11:52:31;16.10;99.90
41324;DHT22;27073;51.128;4.220;2023-03-17T11:57:59;16.60;99.90
41324;DHT22;27073;51.128;4.220;2023-03-17T12:00:30;16.80;99.90
41324;DHT22;27073;51.128;4.220;2023-03-17T12:05:25;16.90;99.90
41324;DHT22;27073;51.128;4.220;2023-03-17T12:07:56;17.00;99.90
41324;DHT22;27073;51.128;4.220;2023-03-17T12:15:56;16.70;99.90
41324;DHT22;27073;51.128;4.220;2023-03-17T12:26:43;18.20;99.90
41324;DHT22;27073;51.128;4.220;2023-03-17T12:35:31;18.40;99.90
41324;DHT22;27073;51.128;4.220;2023-03-17T12:38:08;18.30;99.90
41324;DHT22;27073;51.128;4.220;2023-03-17T12:44:09;18.70;99.90
41324;DHT22;27073;51.128;4.220;2023-03-17T12:47:42;18.50;99.90
41324;DHT22;27073;51.128;4.220;2023-03-17T12:52:39;18.40;99.90
41324;DHT22;27073;51.128;4.220;2023-03-17T12:55:12;18.50;99.90
41324;DHT22;27073;51.128;4.220;2023-03-17T12:57:42;18.50;99.90
41324;DHT22;27073;51.128;4.220;2023-03-17T13:00:15;18.80;99.90
41324;DHT22;27073;51.128;4.220;2023-03-17T13:02:44;19.10;99.90
41324;DHT22;27073;51.128;4.220;2023-03-17T13:05:16;19.10;99.90
41324;DHT22;27073;51.128;4.220;2023-03-17T13:07:55;19.20;99.90
41324;DHT22;27073;51.128;4.220;2023-03-17T13:10:35;19.20;2.10
41324;DHT22;27073;51.128;4.220;2023-03-17T13:23:53;19.40;99.90
41324;DHT22;27073;51.128;4.220;2023-03-17T13:26:48;19.70;99.90
41324;DHT22;27073;51.128;4.220;2023-03-17T13:29:37;19.90;1.00
41324;DHT22;27073;51.128;4.220;2023-03-17T13:32:30;19.80;99.90
41324;DHT22;27073;51.128;4.220;2023-03-17T13:45:36;20.20;99.90
41324;DHT22;27073;51.128;4.220;2023-03-17T13:48:31;20.40;91.50
41324;DHT22;27073;51.128;4.220;2023-03-17T13:53:38;20.10;99.90
41324;DHT22;27073;51.128;4.220;2023-03-17T14:01:53;20.30;99.90
41324;DHT22;27073;51.128;4.220;2023-03-17T14:04:25;20.60;99.90
41324;DHT22;27073;51.128;4.220;2023-03-17T14:06:53;20.70;99.90
41324;DHT22;27073;51.128;4.220;2023-03-17T14:12:21;20.60;99.90
41324;DHT22;27073;51.128;4.220;2023-03-17T14:14:59;20.10;1.00
41324;DHT22;27073;51.128;4.220;2023-03-17T14:17:35;20.10;1.00
41324;DHT22;27073;51.128;4.220;2023-03-17T14:22:42;20.40;19.80
41324;DHT22;27073;51.128;4.220;2023-03-17T14:25:29;20.60;19.60
41324;DHT22;27073;51.128;4.220;2023-03-17T14:27:57;20.80;99.90
41324;DHT22;27073;51.128;4.220;2023-03-17T14:30:28;20.80;99.90
41324;DHT22;27073;51.128;4.220;2023-03-17T14:33:04;20.60;99.90
41324;DHT22;27073;51.128;4.220;2023-03-17T14:35:39;20.70;99.90
41324;DHT22;27073;51.128;4.220;2023-03-17T14:38:17;20.60;99.90
41324;DHT22;27073;51.128;4.220;2023-03-17T14:40:44;20.40;99.90
41324;DHT22;27073;51.128;4.220;2023-03-17T14:43:10;20.10;99.90
41324;DHT22;27073;51.128;4.220;2023-03-17T14:46:21;19.70;18.30
41324;DHT22;27073;51.128;4.220;2023-03-17T14:48:36;19.50;99.90
41324;DHT22;27073;51.128;4.220;2023-03-17T14:51:22;19.40;1.00
41324;DHT22;27073;51.128;4.220;2023-03-17T14:53:50;19.40;14.00
41324;DHT22;27073;51.128;4.220;2023-03-17T14:56:26;19.30;94.40
41324;DHT22;27073;51.128;4.220;2023-03-17T15:08:39;19.10;1.00
41324;DHT22;27073;51.128;4.220;2023-03-17T15:11:52;18.80;99.90
41324;DHT22;27073;51.128;4.220;2023-03-17T15:14:49;18.80;99.90
41324;DHT22;27073;51.128;4.220;2023-03-17T15:16:51;18.70;1.00
41324;DHT22;27073;51.128;4.220;2023-03-17T15:21:43;18.70;99.90
41324;DHT22;27073;51.128;4.220;2023-03-17T15:24:21;18.50;99.90
41324;DHT22;27073;51.128;4.220;2023-03-17T15:26:46;18.40;90.20
41324;DHT22;27073;51.128;4.220;2023-03-17T15:29:12;18.20;99.90
41324;DHT22;27073;51.128;4.220;2023-03-17T15:31:38;18.20;98.10
41324;DHT22;27073;51.128;4.220;2023-03-17T15:34:03;18.30;99.90
41324;DHT22;27073;51.128;4.220;2023-03-17T15:36:29;18.30;99.90
41324;DHT22;27073;51.128;4.220;2023-03-17T15:38:56;18.20;99.90
41324;DHT22;27073;51.128;4.220;2023-03-17T15:41:21;18.20;99.90
41324;DHT22;27073;51.128;4.220;2023-03-17T15:43:47;18.30;68.80
41324;DHT22;27073;51.128;4.220;2023-03-17T15:46:24;18.40;43.00
41324;DHT22;27073;51.128;4.220;2023-03-17T15:48:51;18.20;99.90
41324;DHT22;27073;51.128;4.220;2023-03-17T15:51:17;18.10;1.00
41324;DHT22;27073;51.128;4.220;2023-03-17T15:53:43;18.10;99.90
41324;DHT22;27073;51.128;4.220;2023-03-17T15:56:15;18.10;1.00
41324;DHT22;27073;51.128;4.220;2023-03-17T15:58:47;18.00;99.90
41324;DHT22;27073;51.128;4.220;2023-03-17T16:01:13;17.90;99.90
41324;DHT22;27073;51.128;4.220;2023-03-17T16:03:40;17.80;99.90
41324;DHT22;27073;51.128;4.220;2023-03-17T16:06:19;17.90;99.90
41324;DHT22;27073;51.128;4.220;2023-03-17T16:08:46;18.00;1.00
41324;DHT22;27073;51.128;4.220;2023-03-17T16:11:20;17.80;99.90
41324;DHT22;27073;51.128;4.220;2023-03-17T16:13:53;17.80;99.90
41324;DHT22;27073;51.128;4.220;2023-03-17T16:16:40;17.80;9.10
41324;DHT22;27073;51.128;4.220;2023-03-17T16:19:16;17.90;99.90
41324;DHT22;27073;51.128;4.220;2023-03-17T16:21:43;17.70;1.00
41324;DHT22;27073;51.128;4.220;2023-03-17T16:24:26;17.80;1.00
41324;DHT22;27073;51.128;4.220;2023-03-17T16:26:52;17.90;1.00
41324;DHT22;27073;51.128;4.220;2023-03-17T16:29:19;17.90;14.30
41324;DHT22;27073;51.128;4.220;2023-03-17T16:31:47;17.80;99.90
41324;DHT22;27073;51.128;4.220;2023-03-17T16:34:19;17.70;99.90
41324;DHT22;27073;51.128;4.220;2023-03-17T16:36:46;17.60;99.90
41324;DHT22;27073;51.128;4.220;2023-03-17T16:39:18;17.70;1.00
41324;DHT22;27073;51.128;4.220;2023-03-17T16:41:45;17.70;99.90
41324;DHT22;27073;51.128;4.220;2023-03-17T16:44:13;17.40;99.90
41324;DHT22;27073;51.128;4.220;2023-03-17T16:46:40;17.50;77.70
41324;DHT22;27073;51.128;4.220;2023-03-17T16:49:15;17.40;99.90
41324;DHT22;27073;51.128;4.220;2023-03-17T16:51:42;17.30;99.90
41324;DHT22;27073;51.128;4.220;2023-03-17T16:54:08;17.10;99.90
41324;DHT22;27073;51.128;4.220;2023-03-17T16:56:35;17.00;98.90
41324;DHT22;27073;51.128;4.220;2023-03-17T16:59:02;17.00;99.90
41324;DHT22;27073;51.128;4.220;2023-03-17T17:01:28;17.10;99.90
41324;DHT22;27073;51.128;4.220;2023-03-17T17:03:54;17.10;93.70
41324;DHT22;27073;51.128;4.220;2023-03-17T17:06:22;17.20;22.60
41324;DHT22;27073;51.128;4.220;2023-03-17T17:08:49;17.30;1.00
41324;DHT22;27073;51.128;4.220;2023-03-17T17:11:16;17.20;1.00
41324;DHT22;27073;51.128;4.220;2023-03-17T17:13:46;17.20;1.00
41324;DHT22;27073;51.128;4.220;2023-03-17T17:16:24;17.30;53.60
41324;DHT22;27073;51.128;4.220;2023-03-17T17:18:50;17.40;1.00
41324;DHT22;27073;51.128;4.220;2023-03-17T17:21:16;17.40;99.90
41324;DHT22;27073;51.128;4.220;2023-03-17T17:23:42;17.40;99.90
41324;DHT22;27073;51.128;4.220;2023-03-17T17:26:08;17.30;99.90
41324;DHT22;27073;51.128;4.220;2023-03-17T17:28:34;17.20;16.00
41324;DHT22;27073;51.128;4.220;2023-03-17T17:31:00;17.10;65.00
41324;DHT22;27073;51.128;4.220;2023-03-17T17:33:26;17.10;1.00
41324;DHT22;27073;51.128;4.220;2023-03-17T17:35:52;16.80;40.10
41324;DHT22;27073;51.128;4.220;2023-03-17T17:38:22;16.70;48.90
41324;DHT22;27073;51.128;4.220;2023-03-17T17:40:51;16.80;28.10
41324;DHT22;27073;51.128;4.220;2023-03-17T17:43:17;16.80;99.90
41324;DHT22;27073;51.128;4.220;2023-03-17T17:45:44;17.00;13.80
41324;DHT22;27073;51.128;4.220;2023-03-17T17:48:17;16.70;1.00
41324;DHT22;27073;51.128;4.220;2023-03-17T17:50:43;16.80;70.90